createdAt,value
2022-08-25T00:00:54.238Z,16.30
2022-08-25T00:02:58.115Z,16.40
2022-08-25T00:05:02.646Z,16.40
2022-08-25T00:07:08.224Z,16.50
2022-08-25T00:09:16.733Z,16.60
2022-08-25T00:11:24.537Z,16.60
2022-08-25T00:13:28.232Z,16.60
2022-08-25T00:15:34.434Z,16.60
2022-08-25T00:17:38.195Z,16.70
2022-08-25T00:19:41.969Z,16.70
2022-08-25T00:21:47.277Z,16.70
2022-08-25T00:23:51.321Z,16.70
2022-08-25T00:25:55.603Z,16.70
2022-08-25T00:27:59.404Z,16.80
2022-08-25T00:30:03.226Z,16.80
2022-08-25T00:32:09.129Z,16.80
2022-08-25T00:34:17.544Z,16.90
2022-08-25T00:38:26.482Z,16.80
2022-08-25T00:40:31.055Z,16.90
2022-08-25T00:42:34.715Z,17.00
2022-08-25T00:44:38.475Z,17.00
2022-08-25T00:46:47.770Z,17.00
2022-08-25T00:48:58.251Z,16.90
2022-08-25T00:51:04.333Z,16.90
2022-08-25T00:53:10.037Z,17.00
2022-08-25T00:55:18.198Z,17.00
2022-08-25T00:57:34.846Z,17.00
2022-08-25T00:59:39.432Z,16.90
2022-08-25T01:01:43.540Z,16.90
2022-08-25T01:03:47.593Z,17.00
2022-08-25T01:05:54.246Z,17.00
2022-08-25T01:07:59.689Z,17.00
2022-08-25T01:10:06.661Z,17.10
2022-08-25T01:12:10.467Z,17.00
2022-08-25T01:14:17.298Z,17.10
2022-08-25T01:16:21.142Z,17.10
2022-08-25T01:18:25.941Z,17.00
2022-08-25T01:22:38.244Z,17.00
2022-08-25T01:24:47.281Z,17.00
2022-08-25T01:26:50.903Z,16.90
2022-08-25T01:29:12.867Z,16.80
2022-08-25T01:31:23.825Z,16.80
2022-08-25T01:33:29.584Z,16.80
2022-08-25T01:35:36.569Z,16.80
2022-08-25T01:37:42.035Z,16.80
2022-08-25T01:39:46.098Z,16.80
2022-08-25T01:42:11.683Z,16.80
2022-08-25T01:44:16.721Z,16.70
2022-08-25T01:46:20.564Z,16.70
2022-08-25T01:48:24.793Z,16.70
2022-08-25T01:50:29.149Z,16.70
2022-08-25T01:52:38.839Z,16.60
2022-08-25T01:54:44.757Z,16.60
2022-08-25T01:56:48.409Z,16.50
2022-08-25T01:58:52.234Z,16.50
2022-08-25T02:00:57.819Z,16.50
2022-08-25T02:03:01.712Z,16.50
2022-08-25T02:05:09.015Z,16.50
2022-08-25T02:07:12.583Z,16.40
2022-08-25T02:09:18.902Z,16.40
2022-08-25T02:11:25.562Z,16.30
2022-08-25T02:13:31.194Z,16.30
2022-08-25T02:15:36.179Z,16.30
2022-08-25T02:17:40.084Z,16.20
2022-08-25T02:19:44.187Z,16.20
2022-08-25T02:21:50.588Z,16.20
2022-08-25T02:23:54.712Z,16.20
2022-08-25T02:25:58.801Z,16.30
2022-08-25T02:28:07.170Z,16.20
2022-08-25T02:30:13.579Z,16.20
2022-08-25T02:34:21.367Z,16.30
2022-08-25T02:36:25.793Z,16.30
2022-08-25T02:38:30.351Z,16.20
2022-08-25T02:40:34.769Z,16.10
2022-08-25T02:42:38.876Z,16.40
2022-08-25T02:44:48.345Z,16.50
2022-08-25T02:46:52.178Z,16.50
2022-08-25T02:48:56.425Z,16.40
2022-08-25T02:51:03.118Z,16.30
2022-08-25T02:53:08.066Z,16.30
2022-08-25T02:55:14.614Z,16.30
2022-08-25T02:57:18.557Z,16.20
2022-08-25T02:59:22.209Z,16.30
2022-08-25T03:01:29.264Z,16.30
2022-08-25T03:03:37.540Z,16.30
2022-08-25T03:05:43.513Z,16.30
2022-08-25T03:07:50.679Z,16.40
2022-08-25T03:09:58.749Z,16.50
2022-08-25T03:12:02.407Z,16.50
2022-08-25T03:14:06.631Z,16.60
2022-08-25T03:16:11.521Z,16.60
2022-08-25T03:18:20.012Z,16.60
2022-08-25T03:20:25.098Z,16.70
2022-08-25T03:22:28.760Z,16.70
2022-08-25T03:24:32.511Z,16.80
2022-08-25T03:26:53.231Z,16.80
2022-08-25T03:29:00.485Z,16.80
2022-08-25T03:31:05.804Z,16.90
2022-08-25T03:33:10.587Z,16.90
2022-08-25T03:35:16.258Z,16.80
2022-08-25T03:37:19.865Z,16.90
2022-08-25T03:39:25.059Z,16.90
2022-08-25T03:41:32.639Z,16.90
2022-08-25T03:45:43.102Z,16.90
2022-08-25T03:47:49.321Z,16.80
2022-08-25T03:49:52.978Z,16.70
2022-08-25T03:51:59.122Z,16.80
2022-08-25T03:54:05.839Z,16.70
2022-08-25T03:56:09.833Z,16.70
2022-08-25T03:58:13.568Z,16.80
2022-08-25T04:00:18.118Z,16.80
2022-08-25T04:02:22.059Z,16.70
2022-08-25T04:04:26.307Z,16.60
2022-08-25T04:06:30.332Z,16.70
2022-08-25T04:08:36.847Z,16.70
2022-08-25T04:10:40.317Z,16.70
2022-08-25T04:12:44.013Z,16.70
2022-08-25T04:14:51.980Z,16.80
2022-08-25T04:16:56.482Z,16.70
2022-08-25T04:19:02.329Z,16.80
2022-08-25T04:23:12.678Z,16.80
2022-08-25T04:25:18.243Z,16.80
2022-08-25T04:27:21.705Z,16.70
2022-08-25T04:29:28.581Z,16.80
2022-08-25T04:31:37.169Z,16.70
2022-08-25T04:33:42.449Z,16.80
2022-08-25T04:35:50.162Z,16.90
2022-08-25T04:37:54.085Z,16.90
2022-08-25T04:39:58.085Z,16.90
2022-08-25T04:42:03.755Z,17.10
2022-08-25T04:44:08.493Z,17.10
2022-08-25T04:46:15.008Z,17.20
2022-08-25T04:48:25.694Z,17.30
2022-08-25T04:50:30.032Z,17.40
2022-08-25T04:52:34.056Z,17.50
2022-08-25T04:54:40.490Z,17.50
2022-08-25T04:56:45.234Z,17.60
2022-08-25T04:58:50.602Z,17.60
2022-08-25T05:00:54.848Z,17.60
2022-08-25T05:02:58.602Z,17.70
2022-08-25T05:05:04.189Z,17.70
2022-08-25T05:07:11.925Z,17.70
2022-08-25T05:09:15.597Z,17.70
2022-08-25T05:11:24.614Z,17.70
2022-08-25T05:13:30.459Z,17.80
2022-08-25T05:15:54.373Z,17.90
2022-08-25T05:18:01.352Z,18.00
2022-08-25T05:20:06.286Z,18.00
2022-08-25T05:22:10.387Z,18.00
2022-08-25T05:24:14.396Z,18.00
2022-08-25T05:26:21.161Z,18.10
2022-08-25T05:28:28.671Z,18.20
2022-08-25T05:30:33.067Z,18.30
2022-08-25T05:34:44.039Z,18.40
2022-08-25T05:36:47.991Z,18.60
2022-08-25T05:38:51.631Z,18.80
2022-08-25T05:40:59.024Z,18.80
2022-08-25T05:43:02.673Z,18.90
2022-08-25T05:45:21.293Z,18.90
2022-08-25T05:47:25.018Z,18.90
2022-08-25T05:49:31.701Z,19.10
2022-08-25T05:51:36.682Z,19.20
2022-08-25T05:53:43.309Z,19.60
2022-08-25T05:55:47.487Z,19.60
2022-08-25T05:57:51.967Z,19.70
2022-08-25T05:59:56.032Z,19.80
2022-08-25T06:02:17.267Z,19.90
2022-08-25T06:04:22.711Z,20.10
2022-08-25T06:08:34.100Z,20.90
2022-08-25T06:12:46.280Z,21.90
2022-08-25T06:14:50.512Z,22.30
2022-08-25T06:16:54.406Z,22.60
2022-08-25T06:21:11.497Z,23.00
2022-08-25T06:23:19.342Z,22.90
2022-08-25T06:25:25.314Z,22.90
2022-08-25T06:27:29.288Z,22.80
2022-08-25T06:33:42.543Z,22.60
2022-08-25T06:35:47.494Z,22.60
2022-08-25T06:37:51.139Z,22.90
2022-08-25T06:39:59.062Z,22.80
2022-08-25T06:42:02.721Z,22.50
2022-08-25T06:44:07.105Z,22.70
2022-08-25T06:46:12.719Z,22.80
2022-08-25T06:48:21.177Z,22.80
2022-08-25T06:50:24.750Z,22.70
2022-08-25T06:52:31.914Z,23.00
2022-08-25T06:54:35.722Z,23.20
2022-08-25T06:56:42.413Z,23.50
2022-08-25T06:58:46.777Z,23.80
2022-08-25T07:00:52.726Z,23.90
2022-08-25T07:02:57.093Z,23.80
2022-08-25T07:05:00.861Z,24.00
2022-08-25T07:07:05.988Z,24.10
2022-08-25T07:11:17.459Z,24.10
2022-08-25T07:13:22.874Z,24.10
2022-08-25T07:15:29.626Z,23.90
2022-08-25T07:17:34.681Z,23.90
2022-08-25T07:19:39.080Z,24.00
2022-08-25T07:21:47.115Z,24.30
2022-08-25T07:23:53.261Z,24.40
2022-08-25T07:25:57.946Z,24.40
2022-08-25T07:30:11.348Z,23.70
2022-08-25T07:32:15.692Z,23.60
2022-08-25T07:36:43.090Z,23.30
2022-08-25T07:38:47.098Z,23.50
2022-08-25T07:40:56.975Z,24.00
2022-08-25T07:43:03.730Z,24.00
2022-08-25T07:45:15.501Z,24.40
2022-08-25T07:47:21.461Z,24.50
2022-08-25T07:49:35.897Z,24.50
2022-08-25T07:51:39.864Z,24.50
2022-08-25T07:54:03.829Z,24.30
2022-08-25T07:58:17.426Z,23.80
2022-08-25T08:00:23.156Z,23.50
2022-08-25T08:02:30.659Z,23.50
2022-08-25T08:04:38.529Z,23.70
2022-08-25T08:06:45.041Z,23.70
2022-08-25T08:08:54.722Z,23.60
2022-08-25T08:11:05.097Z,23.60
2022-08-25T08:13:10.321Z,23.70
2022-08-25T08:15:14.754Z,23.50
2022-08-25T08:17:22.831Z,23.40
2022-08-25T08:19:27.124Z,23.40
2022-08-25T08:21:32.727Z,23.30
2022-08-25T08:23:36.864Z,23.50
2022-08-25T08:25:40.948Z,23.50
2022-08-25T08:27:45.982Z,23.40
2022-08-25T08:29:49.703Z,23.20
2022-08-25T08:31:53.787Z,23.20
2022-08-25T08:33:59.459Z,23.10
2022-08-25T08:36:05.437Z,23.00
2022-08-25T08:38:17.242Z,23.00
2022-08-25T08:40:23.395Z,22.80
2022-08-25T08:42:47.048Z,22.60
2022-08-25T08:49:26.853Z,22.70
2022-08-25T08:51:37.001Z,22.60
2022-08-25T08:53:47.927Z,22.70
2022-08-25T08:57:59.282Z,22.80
2022-08-25T09:00:07.320Z,22.80
2022-08-25T09:02:49.852Z,22.90
2022-08-25T09:04:48.689Z,23.00
2022-08-25T09:06:52.823Z,23.10
2022-08-25T09:09:00.509Z,22.80
2022-08-25T09:11:11.894Z,22.80
2022-08-25T09:15:57.699Z,23.00
2022-08-25T09:18:12.005Z,23.10
2022-08-25T09:20:41.501Z,23.10
2022-08-25T09:22:56.075Z,23.20
2022-08-25T09:25:10.563Z,23.60
2022-08-25T09:27:26.077Z,23.70
2022-08-25T09:29:39.364Z,23.80
2022-08-25T09:31:44.596Z,23.90
2022-08-25T09:36:00.025Z,23.60
2022-08-25T09:38:11.598Z,23.80
2022-08-25T09:40:17.124Z,24.00
2022-08-25T09:42:23.887Z,24.20
2022-08-25T09:44:34.273Z,24.30
2022-08-25T09:46:39.716Z,24.50
2022-08-25T09:48:56.098Z,24.60
2022-08-25T09:51:12.219Z,24.70
2022-08-25T09:55:32.677Z,24.90
2022-08-25T09:59:55.707Z,25.30
2022-08-25T10:04:17.733Z,25.70
2022-08-25T10:06:28.283Z,26.00
2022-08-25T10:08:40.986Z,26.30
2022-08-25T10:10:49.393Z,25.90
2022-08-25T10:12:53.400Z,25.80
2022-08-25T10:14:59.093Z,25.80
2022-08-25T10:17:27.403Z,26.10
2022-08-25T10:19:32.200Z,26.10
2022-08-25T10:21:42.564Z,25.80
2022-08-25T10:25:59.396Z,25.90
2022-08-25T10:28:18.333Z,25.90
2022-08-25T10:30:39.894Z,26.10
2022-08-25T10:33:01.809Z,26.50
2022-08-25T10:35:24.684Z,26.10
2022-08-25T10:37:43.046Z,26.10
2022-08-25T10:46:41.498Z,26.30
2022-08-25T10:48:59.344Z,26.30
2022-08-25T10:51:14.591Z,26.30
2022-08-25T10:53:42.454Z,26.30
2022-08-25T10:58:01.687Z,26.30
2022-08-25T11:00:10.097Z,26.30
2022-08-25T11:03:03.640Z,26.30
2022-08-25T11:05:13.936Z,26.00
2022-08-25T11:07:26.496Z,26.00
2022-08-25T11:09:37.133Z,25.90
2022-08-25T11:11:54.006Z,25.70
2022-08-25T11:14:09.198Z,25.70
2022-08-25T11:16:18.667Z,25.70
2022-08-25T11:18:24.408Z,26.00
2022-08-25T11:20:39.716Z,25.90
2022-08-25T11:22:48.636Z,25.90
2022-08-25T11:25:13.815Z,26.20
2022-08-25T11:27:25.012Z,26.20
2022-08-25T11:29:37.495Z,26.90
2022-08-25T11:34:01.570Z,28.00
2022-08-25T11:38:31.240Z,29.80
2022-08-25T11:41:01.797Z,31.20
2022-08-25T11:43:18.060Z,31.70
2022-08-25T11:47:58.215Z,32.50
2022-08-25T11:50:03.842Z,33.20
2022-08-25T11:52:31.731Z,33.00
2022-08-25T11:59:13.198Z,33.90
2022-08-25T12:02:07.248Z,33.60
2022-08-25T12:06:33.832Z,33.90
2022-08-25T12:09:21.560Z,34.10
2022-08-25T12:11:59.036Z,34.40
2022-08-25T12:21:18.123Z,33.90
2022-08-25T12:59:00.160Z,33.80
2022-08-25T13:01:35.159Z,33.20
2022-08-25T13:04:03.681Z,32.50
2022-08-25T13:06:33.354Z,32.20
2022-08-25T13:09:12.862Z,32.40
2022-08-25T13:11:24.685Z,31.70
2022-08-25T13:13:40.944Z,31.70
2022-08-25T13:15:54.825Z,31.20
2022-08-25T13:18:18.372Z,30.70
2022-08-25T13:20:30.330Z,30.30
2022-08-25T13:22:37.926Z,31.00
2022-08-25T13:24:44.836Z,31.00
2022-08-25T13:26:52.310Z,30.70
2022-08-25T13:29:09.039Z,30.10
2022-08-25T13:31:19.423Z,30.60
2022-08-25T13:33:26.032Z,30.80
2022-08-25T13:35:33.367Z,30.60
2022-08-25T13:37:38.249Z,29.90
2022-08-25T13:39:58.681Z,29.60
2022-08-25T13:42:05.012Z,29.30
2022-08-25T13:44:13.231Z,29.90
2022-08-25T13:46:22.110Z,30.00
2022-08-25T13:48:37.742Z,30.00
2022-08-25T13:50:43.903Z,29.90
2022-08-25T13:52:58.963Z,30.20
2022-08-25T13:55:04.535Z,30.50
2022-08-25T13:57:14.579Z,30.80
2022-08-25T13:59:26.106Z,30.80
2022-08-25T14:01:48.802Z,30.70
2022-08-25T14:04:01.462Z,30.20
2022-08-25T14:06:23.558Z,30.00
2022-08-25T14:08:34.605Z,30.10
2022-08-25T14:10:43.251Z,29.90
2022-08-25T14:12:49.683Z,29.90
2022-08-25T14:15:04.119Z,29.80
2022-08-25T14:17:22.325Z,29.60
2022-08-25T14:19:36.028Z,29.10
2022-08-25T14:21:42.549Z,29.00
2022-08-25T14:23:46.560Z,29.40
2022-08-25T14:25:52.233Z,29.40
2022-08-25T14:28:07.602Z,29.40
2022-08-25T14:30:13.985Z,29.20
2022-08-25T14:32:19.232Z,28.70
2022-08-25T14:34:26.237Z,28.80
2022-08-25T14:36:35.799Z,28.80
2022-08-25T14:38:44.125Z,28.90
2022-08-25T14:40:51.583Z,28.80
2022-08-25T14:42:58.651Z,28.80
2022-08-25T14:45:02.534Z,28.70
2022-08-25T14:47:10.158Z,28.70
2022-08-25T14:49:24.627Z,28.50
2022-08-25T14:51:32.774Z,28.70
2022-08-25T14:53:38.309Z,28.70
2022-08-25T14:55:42.929Z,28.60
2022-08-25T14:57:47.918Z,28.50
2022-08-25T14:59:54.024Z,28.40
2022-08-25T15:02:01.387Z,28.30
2022-08-25T15:04:08.919Z,28.10
2022-08-25T15:06:15.205Z,27.90
2022-08-25T15:08:35.908Z,27.80
2022-08-25T15:10:43.807Z,27.90
2022-08-25T15:12:53.093Z,27.80
2022-08-25T15:14:59.014Z,27.90
2022-08-25T15:17:04.051Z,27.80
2022-08-25T15:19:09.781Z,27.90
2022-08-25T15:21:15.395Z,28.00
2022-08-25T15:23:19.701Z,28.00
2022-08-25T15:25:24.692Z,27.90
2022-08-25T15:27:31.872Z,27.90
2022-08-25T15:29:36.501Z,27.80
2022-08-25T15:31:42.853Z,27.70
2022-08-25T15:33:46.953Z,27.60
2022-08-25T15:35:52.533Z,27.60
2022-08-25T15:38:45.665Z,27.50
2022-08-25T15:40:50.482Z,27.60
2022-08-25T15:42:56.283Z,27.50
2022-08-25T15:45:02.749Z,27.50
2022-08-25T15:47:12.534Z,27.60
2022-08-25T15:49:20.894Z,27.60
2022-08-25T15:51:30.070Z,27.60
2022-08-25T15:53:33.565Z,27.40
2022-08-25T15:55:42.630Z,27.40
2022-08-25T15:57:49.778Z,27.40
2022-08-25T15:59:55.528Z,27.50
2022-08-25T16:02:02.268Z,27.50
2022-08-25T16:04:08.294Z,27.40
2022-08-25T16:06:12.751Z,27.30
2022-08-25T16:08:19.584Z,27.30
2022-08-25T16:10:23.654Z,27.10
2022-08-25T16:12:38.293Z,27.00
2022-08-25T16:14:42.495Z,27.00
2022-08-25T16:16:48.149Z,26.80
2022-08-25T16:18:52.185Z,26.80
2022-08-25T16:20:58.282Z,26.80
2022-08-25T16:23:03.865Z,26.70
2022-08-25T16:25:09.467Z,26.80
2022-08-25T16:27:13.650Z,26.70
2022-08-25T16:29:17.848Z,26.70
2022-08-25T16:31:22.375Z,26.60
2022-08-25T16:33:29.631Z,26.50
2022-08-25T16:35:37.220Z,26.40
2022-08-25T16:37:44.714Z,26.20
2022-08-25T16:39:53.392Z,26.00
2022-08-25T16:41:58.076Z,25.80
2022-08-25T16:45:11.700Z,25.70
2022-08-25T16:46:55.473Z,25.50
2022-08-25T16:49:04.525Z,25.20
2022-08-25T16:51:13.801Z,25.10
2022-08-25T16:54:22.201Z,25.10
2022-08-25T16:56:25.223Z,25.10
2022-08-25T16:58:35.011Z,24.90
2022-08-25T17:00:41.754Z,25.00
2022-08-25T17:02:51.795Z,25.00
2022-08-25T17:05:01.821Z,25.00
2022-08-25T17:07:09.621Z,24.80
2022-08-25T17:09:17.407Z,24.70
2022-08-25T17:11:30.258Z,24.50
2022-08-25T17:13:44.737Z,24.40
2022-08-25T17:15:52.368Z,24.20
2022-08-25T17:18:05.777Z,24.00
2022-08-25T17:20:12.792Z,24.00
2022-08-25T17:22:19.206Z,23.70
2022-08-25T17:24:29.299Z,23.60
2022-08-25T17:26:39.295Z,23.40
2022-08-25T17:28:43.473Z,23.30
2022-08-25T17:30:47.132Z,23.10
2022-08-25T17:32:54.856Z,22.90
2022-08-25T17:34:59.519Z,22.70
2022-08-25T17:37:14.681Z,22.60
2022-08-25T17:39:22.060Z,22.40
2022-08-25T17:41:26.427Z,22.30
2022-08-25T17:43:35.549Z,22.20
2022-08-25T17:45:44.657Z,22.10
2022-08-25T17:47:48.515Z,21.90
2022-08-25T17:49:54.710Z,21.80
2022-08-25T17:52:01.257Z,21.70
2022-08-25T17:54:16.557Z,21.70
2022-08-25T17:56:22.368Z,21.60
2022-08-25T17:58:27.325Z,21.40
2022-08-25T18:00:34.714Z,21.40
2022-08-25T18:02:43.168Z,21.20
2022-08-25T18:04:46.989Z,21.10
2022-08-25T18:06:53.309Z,21.10
2022-08-25T18:09:01.649Z,21.00
2022-08-25T18:11:12.254Z,20.90
2022-08-25T18:13:16.147Z,20.80
2022-08-25T18:15:26.057Z,20.80
2022-08-25T18:17:32.935Z,20.70
2022-08-25T18:19:43.642Z,20.60
2022-08-25T18:21:48.607Z,20.50
2022-08-25T18:23:52.684Z,20.40
2022-08-25T18:26:00.899Z,20.30
2022-08-25T18:28:07.239Z,20.20
2022-08-25T18:30:14.526Z,20.20
2022-08-25T18:32:21.863Z,20.00
2022-08-25T18:34:34.541Z,20.00
2022-08-25T18:36:42.242Z,19.90
2022-08-25T18:39:05.581Z,19.80
2022-08-25T18:41:13.432Z,19.80
2022-08-25T18:43:24.909Z,19.70
2022-08-25T18:45:35.574Z,19.60
2022-08-25T18:47:42.115Z,19.60
2022-08-25T18:49:51.770Z,19.60
2022-08-25T18:51:56.514Z,19.50
2022-08-25T18:54:03.720Z,19.40
2022-08-25T18:56:10.996Z,19.40
2022-08-25T18:58:16.184Z,19.30
2022-08-25T19:00:30.142Z,19.30
2022-08-25T19:02:36.371Z,19.30
2022-08-25T19:04:44.402Z,19.20
2022-08-25T19:06:48.431Z,19.20
2022-08-25T19:08:57.178Z,19.20
2022-08-25T19:11:04.237Z,19.10
2022-08-25T19:13:14.762Z,19.10
2022-08-25T19:15:36.674Z,19.00
2022-08-25T19:17:49.021Z,18.90
2022-08-25T19:19:53.882Z,18.90
2022-08-25T19:22:06.682Z,18.90
2022-08-25T19:24:15.379Z,18.80
2022-08-25T19:26:22.845Z,18.80
2022-08-25T19:28:29.717Z,18.80
2022-08-25T19:30:50.622Z,18.70
2022-08-25T19:32:59.952Z,18.60
2022-08-25T19:35:08.631Z,18.60
2022-08-25T19:37:19.696Z,18.60
2022-08-25T19:39:27.403Z,18.50
2022-08-25T19:41:34.563Z,18.50
2022-08-25T19:43:50.573Z,18.40
2022-08-25T19:48:14.303Z,18.40
2022-08-25T19:50:23.363Z,18.40
2022-08-25T19:52:29.927Z,18.40
2022-08-25T19:54:48.509Z,18.40
2022-08-25T19:56:54.825Z,18.50
2022-08-25T19:59:00.153Z,18.40
2022-08-25T20:01:18.273Z,18.30
2022-08-25T20:03:24.932Z,18.30
2022-08-25T20:05:32.951Z,18.30
2022-08-25T20:07:38.701Z,18.30
2022-08-25T20:09:46.675Z,18.30
2022-08-25T20:11:52.073Z,18.20
2022-08-25T20:14:00.361Z,18.20
2022-08-25T20:16:09.117Z,18.20
2022-08-25T20:18:15.261Z,18.20
2022-08-25T20:20:22.813Z,18.10
2022-08-25T20:22:29.112Z,18.20
2022-08-25T20:24:56.100Z,18.20
2022-08-25T20:27:03.722Z,18.20
2022-08-25T20:29:07.192Z,18.10
2022-08-25T20:31:13.726Z,18.00
2022-08-25T20:33:23.130Z,18.00
2022-08-25T20:35:30.064Z,17.90
2022-08-25T20:37:34.146Z,17.90
2022-08-25T20:39:41.491Z,17.90
2022-08-25T20:41:48.444Z,17.80
2022-08-25T20:43:52.776Z,17.80
2022-08-25T20:46:04.607Z,17.80
2022-08-25T20:48:09.829Z,17.80
2022-08-25T20:50:15.993Z,17.80
2022-08-25T20:52:21.378Z,17.80
2022-08-25T20:54:26.925Z,17.70
2022-08-25T20:56:32.384Z,17.70
2022-08-25T20:58:37.523Z,17.80
2022-08-25T21:00:44.931Z,17.70
2022-08-25T21:02:50.681Z,17.60
2022-08-25T21:04:57.197Z,17.60
2022-08-25T21:07:07.000Z,17.60
2022-08-25T21:09:14.458Z,17.50
2022-08-25T21:11:22.209Z,17.50
2022-08-25T21:13:27.161Z,17.50
2022-08-25T21:15:48.656Z,17.40
2022-08-25T21:17:54.546Z,17.40
2022-08-25T21:19:58.898Z,17.40
2022-08-25T21:22:03.450Z,17.40
2022-08-25T21:26:20.346Z,17.30
2022-08-25T21:28:24.288Z,17.30
2022-08-25T21:30:28.840Z,17.30
2022-08-25T21:32:33.051Z,17.30
2022-08-25T21:34:37.381Z,17.20
2022-08-25T21:36:43.757Z,17.20
2022-08-25T21:38:49.225Z,17.20
2022-08-25T21:40:55.263Z,17.20
2022-08-25T21:42:59.174Z,17.10
2022-08-25T21:45:04.149Z,17.10
2022-08-25T21:47:14.915Z,17.10
2022-08-25T21:49:26.468Z,17.10
2022-08-25T21:51:34.582Z,17.10
2022-08-25T21:53:43.719Z,17.10
2022-08-25T21:55:49.108Z,17.10
2022-08-25T21:57:54.930Z,17.10
2022-08-25T22:00:05.202Z,17.10
2022-08-25T22:02:13.905Z,17.10
2022-08-25T22:04:17.857Z,17.10
2022-08-25T22:06:23.624Z,17.10
2022-08-25T22:08:30.466Z,17.10
2022-08-25T22:10:34.875Z,17.10
2022-08-25T22:12:40.731Z,17.10
2022-08-25T22:14:46.064Z,17.20
2022-08-25T22:16:50.125Z,17.30
2022-08-25T22:18:54.246Z,17.20
2022-08-25T22:20:59.310Z,17.30
2022-08-25T22:23:10.271Z,17.30
2022-08-25T22:25:25.090Z,17.20
2022-08-25T22:27:30.405Z,17.20
2022-08-25T22:29:34.127Z,17.20
2022-08-25T22:31:41.819Z,17.20
2022-08-25T22:33:45.657Z,17.20
2022-08-25T22:35:54.272Z,17.20
2022-08-25T22:38:03.790Z,17.10
2022-08-25T22:40:10.700Z,17.10
2022-08-25T22:42:15.329Z,17.00
2022-08-25T22:44:19.424Z,17.00
2022-08-25T22:46:24.588Z,17.00
2022-08-25T22:48:29.972Z,17.00
2022-08-25T22:50:36.458Z,17.10
2022-08-25T22:52:42.249Z,17.10
2022-08-25T22:54:48.694Z,17.00
2022-08-25T22:56:53.117Z,17.10
2022-08-25T22:58:58.670Z,17.10
2022-08-25T23:01:02.756Z,17.10
2022-08-25T23:03:07.716Z,17.10
2022-08-25T23:05:15.660Z,17.00
2022-08-25T23:07:20.018Z,17.00
2022-08-25T23:09:23.734Z,17.00
2022-08-25T23:11:29.160Z,17.00
2022-08-25T23:13:34.343Z,16.90
2022-08-25T23:15:38.868Z,17.00
2022-08-25T23:17:43.333Z,17.00
2022-08-25T23:19:47.157Z,16.90
2022-08-25T23:22:10.420Z,16.90
2022-08-25T23:24:26.853Z,16.90
2022-08-25T23:26:33.842Z,16.90
2022-08-25T23:28:37.745Z,17.00
2022-08-25T23:30:45.057Z,17.00
2022-08-25T23:33:12.239Z,16.90
2022-08-25T23:35:16.039Z,16.90
2022-08-25T23:37:24.487Z,16.80
2022-08-25T23:39:28.997Z,16.80
2022-08-25T23:41:43.903Z,16.80
2022-08-25T23:43:51.637Z,16.80
2022-08-25T23:45:55.690Z,16.80
2022-08-25T23:48:00.436Z,16.80
2022-08-25T23:50:04.174Z,16.90
2022-08-25T23:52:08.082Z,16.90
2022-08-25T23:56:20.770Z,17.10
2022-08-25T23:58:26.218Z,17.20
